sensor_id;sensor_type;location;lat;lon;timestamp;temperature;humidity
3986;DHT22;2007;48.750;9.278;2023-05-07T00:01:03;21.30;56.00
3986;DHT22;2007;48.750;9.278;2023-05-07T00:03:32;21.30;56.60
3986;DHT22;2007;48.750;9.278;2023-05-07T00:06:00;21.30;56.00
3986;DHT22;2007;48.750;9.278;2023-05-07T00:08:28;21.30;56.00
3986;DHT22;2007;48.750;9.278;2023-05-07T00:10:56;21.30;56.00
3986;DHT22;2007;48.750;9.278;2023-05-07T00:13:24;21.30;56.00
3986;DHT22;2007;48.750;9.278;2023-05-07T00:15:54;21.30;56.00
3986;DHT22;2007;48.750;9.278;2023-05-07T00:18:22;21.30;56.00
3986;DHT22;2007;48.750;9.278;2023-05-07T00:20:49;21.30;56.00
3986;DHT22;2007;48.750;9.278;2023-05-07T00:23:18;21.30;56.00
3986;DHT22;2007;48.750;9.278;2023-05-07T00:25:45;21.30;56.00
3986;DHT22;2007;48.750;9.278;2023-05-07T00:28:13;21.30;56.00
3986;DHT22;2007;48.750;9.278;2023-05-07T00:30:41;21.30;56.00
3986;DHT22;2007;48.750;9.278;2023-05-07T00:33:10;21.30;56.00
3986;DHT22;2007;48.750;9.278;2023-05-07T00:35:38;21.30;56.00
3986;DHT22;2007;48.750;9.278;2023-05-07T00:38:06;21.30;56.00
3986;DHT22;2007;48.750;9.278;2023-05-07T00:40:34;21.30;56.00
3986;DHT22;2007;48.750;9.278;2023-05-07T00:43:02;21.30;56.00
3986;DHT22;2007;48.750;9.278;2023-05-07T00:45:30;21.30;55.90
3986;DHT22;2007;48.750;9.278;2023-05-07T00:48:00;21.30;56.00
3986;DHT22;2007;48.750;9.278;2023-05-07T00:50:30;21.30;56.00
3986;DHT22;2007;48.750;9.278;2023-05-07T00:52:58;21.30;56.00
3986;DHT22;2007;48.750;9.278;2023-05-07T00:55:27;21.30;56.00
3986;DHT22;2007;48.750;9.278;2023-05-07T00:57:55;21.30;56.00
3986;DHT22;2007;48.750;9.278;2023-05-07T01:00:23;21.30;56.00
3986;DHT22;2007;48.750;9.278;2023-05-07T01:02:52;21.30;55.90
3986;DHT22;2007;48.750;9.278;2023-05-07T01:05:22;21.30;55.90
3986;DHT22;2007;48.750;9.278;2023-05-07T01:07:54;21.30;55.90
3986;DHT22;2007;48.750;9.278;2023-05-07T01:10:22;21.30;55.90
3986;DHT22;2007;48.750;9.278;2023-05-07T01:12:52;21.30;55.90
3986;DHT22;2007;48.750;9.278;2023-05-07T01:15:21;21.30;55.90
3986;DHT22;2007;48.750;9.278;2023-05-07T01:17:49;21.30;55.90
3986;DHT22;2007;48.750;9.278;2023-05-07T01:20:18;21.30;55.90
3986;DHT22;2007;48.750;9.278;2023-05-07T01:22:47;21.30;55.90
3986;DHT22;2007;48.750;9.278;2023-05-07T01:25:16;21.30;55.90
3986;DHT22;2007;48.750;9.278;2023-05-07T01:27:45;21.30;55.90
3986;DHT22;2007;48.750;9.278;2023-05-07T01:30:13;21.30;55.90
3986;DHT22;2007;48.750;9.278;2023-05-07T01:32:43;21.30;55.90
3986;DHT22;2007;48.750;9.278;2023-05-07T01:35:16;21.30;55.90
3986;DHT22;2007;48.750;9.278;2023-05-07T01:37:48;21.30;55.90
3986;DHT22;2007;48.750;9.278;2023-05-07T01:40:17;21.30;55.90
3986;DHT22;2007;48.750;9.278;2023-05-07T01:42:46;21.30;55.90
3986;DHT22;2007;48.750;9.278;2023-05-07T01:45:15;21.30;55.90
3986;DHT22;2007;48.750;9.278;2023-05-07T01:47:44;21.30;55.90
3986;DHT22;2007;48.750;9.278;2023-05-07T01:50:12;21.30;55.90
3986;DHT22;2007;48.750;9.278;2023-05-07T01:52:40;21.30;55.90
3986;DHT22;2007;48.750;9.278;2023-05-07T01:55:10;21.30;55.90
3986;DHT22;2007;48.750;9.278;2023-05-07T01:57:38;21.30;55.90
3986;DHT22;2007;48.750;9.278;2023-05-07T02:00:07;21.30;55.90
3986;DHT22;2007;48.750;9.278;2023-05-07T02:02:36;21.30;55.90
3986;DHT22;2007;48.750;9.278;2023-05-07T02:05:05;21.30;55.90
3986;DHT22;2007;48.750;9.278;2023-05-07T02:07:33;21.30;55.90
3986;DHT22;2007;48.750;9.278;2023-05-07T02:10:02;21.30;55.90
3986;DHT22;2007;48.750;9.278;2023-05-07T02:12:31;21.30;55.90
3986;DHT22;2007;48.750;9.278;2023-05-07T02:15:00;21.30;55.90
3986;DHT22;2007;48.750;9.278;2023-05-07T02:17:28;21.30;55.90
3986;DHT22;2007;48.750;9.278;2023-05-07T02:19:58;21.30;55.90
3986;DHT22;2007;48.750;9.278;2023-05-07T02:22:26;21.30;55.90
3986;DHT22;2007;48.750;9.278;2023-05-07T02:24:54;21.30;55.90
3986;DHT22;2007;48.750;9.278;2023-05-07T02:27:22;21.30;55.90
3986;DHT22;2007;48.750;9.278;2023-05-07T02:29:51;21.30;55.90
3986;DHT22;2007;48.750;9.278;2023-05-07T02:32:19;21.30;55.90
3986;DHT22;2007;48.750;9.278;2023-05-07T02:34:49;21.30;55.90
3986;DHT22;2007;48.750;9.278;2023-05-07T02:37:17;21.30;55.90
3986;DHT22;2007;48.750;9.278;2023-05-07T02:39:45;21.30;56.00
3986;DHT22;2007;48.750;9.278;2023-05-07T02:42:13;21.30;55.90
3986;DHT22;2007;48.750;9.278;2023-05-07T02:44:41;21.30;55.90
3986;DHT22;2007;48.750;9.278;2023-05-07T02:47:10;21.30;55.90
3986;DHT22;2007;48.750;9.278;2023-05-07T02:49:39;21.20;55.80
3986;DHT22;2007;48.750;9.278;2023-05-07T02:52:08;21.30;55.90
3986;DHT22;2007;48.750;9.278;2023-05-07T02:54:35;21.30;55.90
3986;DHT22;2007;48.750;9.278;2023-05-07T02:57:03;21.30;56.00
3986;DHT22;2007;48.750;9.278;2023-05-07T02:59:31;21.20;55.80
3986;DHT22;2007;48.750;9.278;2023-05-07T03:01:59;21.30;56.00
3986;DHT22;2007;48.750;9.278;2023-05-07T03:04:28;21.20;55.80
3986;DHT22;2007;48.750;9.278;2023-05-07T03:06:57;21.30;55.90
3986;DHT22;2007;48.750;9.278;2023-05-07T03:09:24;21.20;55.80
3986;DHT22;2007;48.750;9.278;2023-05-07T03:11:52;21.20;55.80
3986;DHT22;2007;48.750;9.278;2023-05-07T03:14:20;21.20;55.80
3986;DHT22;2007;48.750;9.278;2023-05-07T03:16:48;21.20;55.80
3986;DHT22;2007;48.750;9.278;2023-05-07T03:19:16;21.20;55.80
3986;DHT22;2007;48.750;9.278;2023-05-07T03:21:46;21.30;55.90
3986;DHT22;2007;48.750;9.278;2023-05-07T03:24:14;21.20;55.80
3986;DHT22;2007;48.750;9.278;2023-05-07T03:26:41;21.20;55.90
3986;DHT22;2007;48.750;9.278;2023-05-07T03:29:09;21.20;55.80
3986;DHT22;2007;48.750;9.278;2023-05-07T03:31:37;21.20;55.80
3986;DHT22;2007;48.750;9.278;2023-05-07T03:34:05;21.20;55.80
3986;DHT22;2007;48.750;9.278;2023-05-07T03:36:33;21.20;55.90
3986;DHT22;2007;48.750;9.278;2023-05-07T03:39:02;21.20;55.80
3986;DHT22;2007;48.750;9.278;2023-05-07T03:41:30;21.20;55.80
3986;DHT22;2007;48.750;9.278;2023-05-07T03:43:58;21.20;55.80
3986;DHT22;2007;48.750;9.278;2023-05-07T03:46:26;21.20;55.80
3986;DHT22;2007;48.750;9.278;2023-05-07T03:48:54;21.20;55.80
3986;DHT22;2007;48.750;9.278;2023-05-07T03:51:22;21.20;55.80
3986;DHT22;2007;48.750;9.278;2023-05-07T03:53:50;21.20;55.80
3986;DHT22;2007;48.750;9.278;2023-05-07T03:56:20;21.20;55.90
3986;DHT22;2007;48.750;9.278;2023-05-07T03:58:48;21.20;55.90
3986;DHT22;2007;48.750;9.278;2023-05-07T04:01:16;21.20;55.90
3986;DHT22;2007;48.750;9.278;2023-05-07T04:03:45;21.20;55.90
3986;DHT22;2007;48.750;9.278;2023-05-07T04:06:13;21.20;55.90
3986;DHT22;2007;48.750;9.278;2023-05-07T04:08:41;21.20;55.80
3986;DHT22;2007;48.750;9.278;2023-05-07T04:11:09;21.20;55.90
3986;DHT22;2007;48.750;9.278;2023-05-07T04:13:38;21.20;55.90
3986;DHT22;2007;48.750;9.278;2023-05-07T04:16:06;21.20;55.90
3986;DHT22;2007;48.750;9.278;2023-05-07T04:18:34;21.20;55.80
3986;DHT22;2007;48.750;9.278;2023-05-07T04:21:02;21.20;55.90
3986;DHT22;2007;48.750;9.278;2023-05-07T04:23:30;21.20;55.90
3986;DHT22;2007;48.750;9.278;2023-05-07T04:25:58;21.20;55.90
3986;DHT22;2007;48.750;9.278;2023-05-07T04:28:27;21.20;55.90
3986;DHT22;2007;48.750;9.278;2023-05-07T04:30:57;21.20;55.90
3986;DHT22;2007;48.750;9.278;2023-05-07T04:33:25;21.20;55.90
3986;DHT22;2007;48.750;9.278;2023-05-07T04:35:53;21.20;55.90
3986;DHT22;2007;48.750;9.278;2023-05-07T04:38:20;21.20;55.90
3986;DHT22;2007;48.750;9.278;2023-05-07T04:40:50;21.20;55.90
3986;DHT22;2007;48.750;9.278;2023-05-07T04:43:18;21.20;55.90
3986;DHT22;2007;48.750;9.278;2023-05-07T04:45:46;21.20;55.90
3986;DHT22;2007;48.750;9.278;2023-05-07T04:48:17;21.20;56.00
3986;DHT22;2007;48.750;9.278;2023-05-07T04:50:47;21.20;55.90
3986;DHT22;2007;48.750;9.278;2023-05-07T04:53:16;21.20;55.90
3986;DHT22;2007;48.750;9.278;2023-05-07T04:55:44;21.20;55.90
3986;DHT22;2007;48.750;9.278;2023-05-07T04:58:12;21.20;55.90
3986;DHT22;2007;48.750;9.278;2023-05-07T05:00:40;21.20;55.90
3986;DHT22;2007;48.750;9.278;2023-05-07T05:03:09;21.20;55.90
3986;DHT22;2007;48.750;9.278;2023-05-07T05:05:39;21.20;55.90
3986;DHT22;2007;48.750;9.278;2023-05-07T05:08:07;21.20;55.90
3986;DHT22;2007;48.750;9.278;2023-05-07T05:10:34;21.20;56.00
3986;DHT22;2007;48.750;9.278;2023-05-07T05:13:02;21.20;55.90
3986;DHT22;2007;48.750;9.278;2023-05-07T05:15:30;21.20;55.90
3986;DHT22;2007;48.750;9.278;2023-05-07T05:17:59;21.10;55.90
3986;DHT22;2007;48.750;9.278;2023-05-07T05:20:27;21.20;55.90
3986;DHT22;2007;48.750;9.278;2023-05-07T05:22:56;21.10;55.80
3986;DHT22;2007;48.750;9.278;2023-05-07T05:25:24;21.10;55.80
3986;DHT22;2007;48.750;9.278;2023-05-07T05:27:52;21.10;55.80
3986;DHT22;2007;48.750;9.278;2023-05-07T05:30:20;21.10;55.80
3986;DHT22;2007;48.750;9.278;2023-05-07T05:32:48;21.10;55.80
3986;DHT22;2007;48.750;9.278;2023-05-07T05:35:16;21.10;55.90
3986;DHT22;2007;48.750;9.278;2023-05-07T05:37:44;21.10;55.90
3986;DHT22;2007;48.750;9.278;2023-05-07T05:40:14;21.10;55.80
3986;DHT22;2007;48.750;9.278;2023-05-07T05:42:42;21.10;55.80
3986;DHT22;2007;48.750;9.278;2023-05-07T05:45:10;21.10;55.80
3986;DHT22;2007;48.750;9.278;2023-05-07T05:47:38;21.10;55.90
3986;DHT22;2007;48.750;9.278;2023-05-07T05:50:07;21.10;55.90
3986;DHT22;2007;48.750;9.278;2023-05-07T05:52:36;21.10;55.90
3986;DHT22;2007;48.750;9.278;2023-05-07T05:55:04;21.10;55.90
3986;DHT22;2007;48.750;9.278;2023-05-07T05:57:34;21.10;55.90
3986;DHT22;2007;48.750;9.278;2023-05-07T06:00:02;21.10;55.90
3986;DHT22;2007;48.750;9.278;2023-05-07T06:02:31;21.10;55.90
3986;DHT22;2007;48.750;9.278;2023-05-07T06:05:00;21.10;55.90
3986;DHT22;2007;48.750;9.278;2023-05-07T06:07:28;21.10;55.90
3986;DHT22;2007;48.750;9.278;2023-05-07T06:09:55;21.10;55.90
3986;DHT22;2007;48.750;9.278;2023-05-07T06:12:24;21.10;55.90
3986;DHT22;2007;48.750;9.278;2023-05-07T06:14:53;21.10;55.90
3986;DHT22;2007;48.750;9.278;2023-05-07T06:17:21;21.10;55.90
3986;DHT22;2007;48.750;9.278;2023-05-07T06:19:49;21.10;55.90
3986;DHT22;2007;48.750;9.278;2023-05-07T06:22:17;21.10;55.90
3986;DHT22;2007;48.750;9.278;2023-05-07T06:24:45;21.10;55.90
3986;DHT22;2007;48.750;9.278;2023-05-07T06:27:12;21.10;55.90
3986;DHT22;2007;48.750;9.278;2023-05-07T06:29:40;21.10;55.90
3986;DHT22;2007;48.750;9.278;2023-05-07T06:32:10;21.10;55.90
3986;DHT22;2007;48.750;9.278;2023-05-07T06:34:39;21.10;55.90
3986;DHT22;2007;48.750;9.278;2023-05-07T06:37:07;21.10;55.90
3986;DHT22;2007;48.750;9.278;2023-05-07T06:39:35;21.10;55.90
3986;DHT22;2007;48.750;9.278;2023-05-07T06:42:03;21.10;55.90
3986;DHT22;2007;48.750;9.278;2023-05-07T06:44:32;21.10;55.90
3986;DHT22;2007;48.750;9.278;2023-05-07T06:47:00;21.10;55.90
3986;DHT22;2007;48.750;9.278;2023-05-07T06:49:29;21.10;55.90
3986;DHT22;2007;48.750;9.278;2023-05-07T06:51:58;21.10;55.90
3986;DHT22;2007;48.750;9.278;2023-05-07T06:54:26;21.10;55.80
3986;DHT22;2007;48.750;9.278;2023-05-07T06:56:53;21.10;55.80
3986;DHT22;2007;48.750;9.278;2023-05-07T06:59:21;21.10;55.90
3986;DHT22;2007;48.750;9.278;2023-05-07T07:01:49;21.10;55.90
3986;DHT22;2007;48.750;9.278;2023-05-07T07:04:17;21.10;55.90
3986;DHT22;2007;48.750;9.278;2023-05-07T07:06:47;21.10;55.90
3986;DHT22;2007;48.750;9.278;2023-05-07T07:09:15;21.20;56.00
3986;DHT22;2007;48.750;9.278;2023-05-07T07:11:43;21.10;55.90
3986;DHT22;2007;48.750;9.278;2023-05-07T07:14:11;21.10;55.90
3986;DHT22;2007;48.750;9.278;2023-05-07T07:16:39;21.10;55.90
3986;DHT22;2007;48.750;9.278;2023-05-07T07:19:07;21.10;55.90
3986;DHT22;2007;48.750;9.278;2023-05-07T07:21:35;21.10;55.90
3986;DHT22;2007;48.750;9.278;2023-05-07T07:24:05;21.20;56.00
3986;DHT22;2007;48.750;9.278;2023-05-07T07:26:33;21.10;55.90
3986;DHT22;2007;48.750;9.278;2023-05-07T07:29:00;21.10;55.90
3986;DHT22;2007;48.750;9.278;2023-05-07T07:31:28;21.10;55.90
3986;DHT22;2007;48.750;9.278;2023-05-07T07:33:57;21.10;55.90
3986;DHT22;2007;48.750;9.278;2023-05-07T07:36:25;21.10;55.90
3986;DHT22;2007;48.750;9.278;2023-05-07T07:39:12;21.20;56.00
3986;DHT22;2007;48.750;9.278;2023-05-07T07:41:40;21.10;56.00
3986;DHT22;2007;48.750;9.278;2023-05-07T07:44:08;21.10;56.00
3986;DHT22;2007;48.750;9.278;2023-05-07T07:46:42;21.10;56.00
3986;DHT22;2007;48.750;9.278;2023-05-07T07:49:10;21.10;56.00
3986;DHT22;2007;48.750;9.278;2023-05-07T07:51:38;21.10;56.00
3986;DHT22;2007;48.750;9.278;2023-05-07T07:54:06;21.10;56.10
3986;DHT22;2007;48.750;9.278;2023-05-07T07:56:35;21.10;56.00
3986;DHT22;2007;48.750;9.278;2023-05-07T07:59:03;21.10;56.10
3986;DHT22;2007;48.750;9.278;2023-05-07T08:01:31;21.10;56.10
3986;DHT22;2007;48.750;9.278;2023-05-07T08:03:59;21.10;56.10
3986;DHT22;2007;48.750;9.278;2023-05-07T08:06:30;21.10;56.10
3986;DHT22;2007;48.750;9.278;2023-05-07T08:08:58;21.10;56.10
3986;DHT22;2007;48.750;9.278;2023-05-07T08:11:26;21.10;56.10
3986;DHT22;2007;48.750;9.278;2023-05-07T08:13:55;21.10;56.10
3986;DHT22;2007;48.750;9.278;2023-05-07T08:16:23;21.10;56.10
3986;DHT22;2007;48.750;9.278;2023-05-07T08:18:51;21.10;56.10
3986;DHT22;2007;48.750;9.278;2023-05-07T08:21:19;21.20;56.10
3986;DHT22;2007;48.750;9.278;2023-05-07T08:23:47;21.10;56.10
3986;DHT22;2007;48.750;9.278;2023-05-07T08:26:15;21.10;56.10
3986;DHT22;2007;48.750;9.278;2023-05-07T08:28:43;21.10;56.10
3986;DHT22;2007;48.750;9.278;2023-05-07T08:31:12;21.10;56.10
3986;DHT22;2007;48.750;9.278;2023-05-07T08:33:40;21.20;56.20
3986;DHT22;2007;48.750;9.278;2023-05-07T08:36:08;21.10;56.10
3986;DHT22;2007;48.750;9.278;2023-05-07T08:38:36;21.10;56.10
3986;DHT22;2007;48.750;9.278;2023-05-07T08:41:04;21.10;56.10
3986;DHT22;2007;48.750;9.278;2023-05-07T08:43:36;21.10;56.10
3986;DHT22;2007;48.750;9.278;2023-05-07T08:46:05;21.20;56.20
3986;DHT22;2007;48.750;9.278;2023-05-07T08:48:37;21.10;56.10
3986;DHT22;2007;48.750;9.278;2023-05-07T08:51:05;21.10;56.10
3986;DHT22;2007;48.750;9.278;2023-05-07T08:53:33;21.10;56.20
3986;DHT22;2007;48.750;9.278;2023-05-07T08:56:02;21.20;56.20
3986;DHT22;2007;48.750;9.278;2023-05-07T08:58:30;21.10;56.20
3986;DHT22;2007;48.750;9.278;2023-05-07T09:01:01;21.10;56.20
3986;DHT22;2007;48.750;9.278;2023-05-07T09:03:31;21.10;56.20
3986;DHT22;2007;48.750;9.278;2023-05-07T09:06:00;21.10;56.10
3986;DHT22;2007;48.750;9.278;2023-05-07T09:08:28;21.10;56.20
3986;DHT22;2007;48.750;9.278;2023-05-07T09:10:56;21.10;56.20
3986;DHT22;2007;48.750;9.278;2023-05-07T09:13:24;21.10;56.20
3986;DHT22;2007;48.750;9.278;2023-05-07T09:15:52;21.10;56.20
3986;DHT22;2007;48.750;9.278;2023-05-07T09:18:20;21.20;56.20
3986;DHT22;2007;48.750;9.278;2023-05-07T09:20:48;21.10;56.20
3986;DHT22;2007;48.750;9.278;2023-05-07T09:23:19;21.10;56.20
3986;DHT22;2007;48.750;9.278;2023-05-07T09:25:47;21.10;56.20
3986;DHT22;2007;48.750;9.278;2023-05-07T09:28:15;21.10;56.20
3986;DHT22;2007;48.750;9.278;2023-05-07T09:30:43;21.10;56.20
3986;DHT22;2007;48.750;9.278;2023-05-07T09:33:11;21.20;56.30
3986;DHT22;2007;48.750;9.278;2023-05-07T09:35:39;21.10;56.20
3986;DHT22;2007;48.750;9.278;2023-05-07T09:38:07;21.10;56.20
3986;DHT22;2007;48.750;9.278;2023-05-07T09:40:37;21.20;56.30
3986;DHT22;2007;48.750;9.278;2023-05-07T09:43:12;21.10;56.20
3986;DHT22;2007;48.750;9.278;2023-05-07T09:45:41;21.10;56.20
3986;DHT22;2007;48.750;9.278;2023-05-07T09:48:09;21.10;56.20
3986;DHT22;2007;48.750;9.278;2023-05-07T09:50:47;21.10;56.20
3986;DHT22;2007;48.750;9.278;2023-05-07T09:53:16;21.10;56.20
3986;DHT22;2007;48.750;9.278;2023-05-07T09:55:46;21.10;56.20
3986;DHT22;2007;48.750;9.278;2023-05-07T09:58:15;21.10;56.20
3986;DHT22;2007;48.750;9.278;2023-05-07T10:00:44;21.10;56.20
3986;DHT22;2007;48.750;9.278;2023-05-07T10:03:13;21.20;56.30
3986;DHT22;2007;48.750;9.278;2023-05-07T10:05:42;21.20;56.30
3986;DHT22;2007;48.750;9.278;2023-05-07T10:08:11;21.10;56.30
3986;DHT22;2007;48.750;9.278;2023-05-07T10:10:40;21.10;56.30
3986;DHT22;2007;48.750;9.278;2023-05-07T10:13:10;21.10;56.20
3986;DHT22;2007;48.750;9.278;2023-05-07T10:15:38;21.10;56.20
3986;DHT22;2007;48.750;9.278;2023-05-07T10:18:06;21.10;56.20
3986;DHT22;2007;48.750;9.278;2023-05-07T10:20:36;21.10;56.20
3986;DHT22;2007;48.750;9.278;2023-05-07T10:23:05;21.20;56.30
3986;DHT22;2007;48.750;9.278;2023-05-07T10:25:33;21.10;56.30
3986;DHT22;2007;48.750;9.278;2023-05-07T10:28:06;21.10;56.20
3986;DHT22;2007;48.750;9.278;2023-05-07T10:30:54;21.10;56.30
3986;DHT22;2007;48.750;9.278;2023-05-07T10:33:29;21.10;56.90
3986;DHT22;2007;48.750;9.278;2023-05-07T10:36:00;21.20;56.30
3986;DHT22;2007;48.750;9.278;2023-05-07T10:38:31;21.10;56.30
3986;DHT22;2007;48.750;9.278;2023-05-07T10:40:59;21.10;56.20
3986;DHT22;2007;48.750;9.278;2023-05-07T10:43:39;21.10;56.20
3986;DHT22;2007;48.750;9.278;2023-05-07T10:46:13;21.10;56.90
3986;DHT22;2007;48.750;9.278;2023-05-07T10:49:12;21.10;56.20
3986;DHT22;2007;48.750;9.278;2023-05-07T10:51:40;21.10;56.20
3986;DHT22;2007;48.750;9.278;2023-05-07T10:54:21;21.10;56.20
3986;DHT22;2007;48.750;9.278;2023-05-07T10:56:50;21.10;56.40
3986;DHT22;2007;48.750;9.278;2023-05-07T10:59:32;21.10;56.20
3986;DHT22;2007;48.750;9.278;2023-05-07T11:02:02;21.10;56.30
3986;DHT22;2007;48.750;9.278;2023-05-07T11:04:34;21.10;56.30
3986;DHT22;2007;48.750;9.278;2023-05-07T11:07:23;21.20;56.30
3986;DHT22;2007;48.750;9.278;2023-05-07T11:10:09;21.10;56.30
3986;DHT22;2007;48.750;9.278;2023-05-07T11:12:53;21.10;56.30
3986;DHT22;2007;48.750;9.278;2023-05-07T11:15:48;21.10;56.30
3986;DHT22;2007;48.750;9.278;2023-05-07T11:18:19;21.10;56.30
3986;DHT22;2007;48.750;9.278;2023-05-07T11:20:49;21.10;56.30
3986;DHT22;2007;48.750;9.278;2023-05-07T11:23:55;21.10;56.30
3986;DHT22;2007;48.750;9.278;2023-05-07T11:26:24;21.10;56.30
3986;DHT22;2007;48.750;9.278;2023-05-07T11:28:52;21.10;56.30
3986;DHT22;2007;48.750;9.278;2023-05-07T11:31:22;21.10;56.20
3986;DHT22;2007;48.750;9.278;2023-05-07T11:33:53;21.20;56.30
3986;DHT22;2007;48.750;9.278;2023-05-07T11:36:23;21.20;56.30
3986;DHT22;2007;48.750;9.278;2023-05-07T11:38:51;21.10;56.40
3986;DHT22;2007;48.750;9.278;2023-05-07T11:41:19;21.20;56.30
3986;DHT22;2007;48.750;9.278;2023-05-07T11:43:55;21.20;56.30
3986;DHT22;2007;48.750;9.278;2023-05-07T11:46:23;21.20;56.40
3986;DHT22;2007;48.750;9.278;2023-05-07T11:48:53;21.20;56.30
3986;DHT22;2007;48.750;9.278;2023-05-07T11:51:23;21.10;56.30
3986;DHT22;2007;48.750;9.278;2023-05-07T11:53:53;21.20;56.40
3986;DHT22;2007;48.750;9.278;2023-05-07T11:56:21;21.20;56.30
3986;DHT22;2007;48.750;9.278;2023-05-07T11:58:49;21.20;56.40
3986;DHT22;2007;48.750;9.278;2023-05-07T12:01:18;21.20;56.30
3986;DHT22;2007;48.750;9.278;2023-05-07T12:03:46;21.20;56.30
3986;DHT22;2007;48.750;9.278;2023-05-07T12:06:16;21.20;56.40
3986;DHT22;2007;48.750;9.278;2023-05-07T12:08:45;21.20;56.40
3986;DHT22;2007;48.750;9.278;2023-05-07T12:11:15;21.20;56.40
3986;DHT22;2007;48.750;9.278;2023-05-07T12:13:45;21.20;56.40
3986;DHT22;2007;48.750;9.278;2023-05-07T12:16:13;21.20;56.40
3986;DHT22;2007;48.750;9.278;2023-05-07T12:18:41;21.20;56.40
3986;DHT22;2007;48.750;9.278;2023-05-07T12:21:10;21.20;56.40
3986;DHT22;2007;48.750;9.278;2023-05-07T12:23:40;21.20;56.40
3986;DHT22;2007;48.750;9.278;2023-05-07T12:26:08;21.20;56.40
3986;DHT22;2007;48.750;9.278;2023-05-07T12:28:37;21.20;56.40
3986;DHT22;2007;48.750;9.278;2023-05-07T12:31:06;21.20;56.40
3986;DHT22;2007;48.750;9.278;2023-05-07T12:33:35;21.20;56.40
3986;DHT22;2007;48.750;9.278;2023-05-07T12:36:06;21.20;56.40
3986;DHT22;2007;48.750;9.278;2023-05-07T12:38:35;21.20;56.40
3986;DHT22;2007;48.750;9.278;2023-05-07T12:41:05;21.20;56.40
3986;DHT22;2007;48.750;9.278;2023-05-07T12:43:34;21.20;56.40
3986;DHT22;2007;48.750;9.278;2023-05-07T12:46:06;21.20;56.40
3986;DHT22;2007;48.750;9.278;2023-05-07T12:48:38;21.20;56.40
3986;DHT22;2007;48.750;9.278;2023-05-07T12:51:06;21.20;56.40
3986;DHT22;2007;48.750;9.278;2023-05-07T12:53:40;21.20;56.40
3986;DHT22;2007;48.750;9.278;2023-05-07T12:56:10;21.20;56.40
3986;DHT22;2007;48.750;9.278;2023-05-07T12:58:38;21.20;56.40
3986;DHT22;2007;48.750;9.278;2023-05-07T13:01:07;21.20;56.40
3986;DHT22;2007;48.750;9.278;2023-05-07T13:03:37;21.20;56.40
3986;DHT22;2007;48.750;9.278;2023-05-07T13:06:07;21.20;56.40
3986;DHT22;2007;48.750;9.278;2023-05-07T13:08:39;21.20;56.40
3986;DHT22;2007;48.750;9.278;2023-05-07T13:11:10;21.20;56.50
3986;DHT22;2007;48.750;9.278;2023-05-07T13:13:40;21.20;56.40
3986;DHT22;2007;48.750;9.278;2023-05-07T13:16:09;21.20;56.50
3986;DHT22;2007;48.750;9.278;2023-05-07T13:18:39;21.20;56.50
3986;DHT22;2007;48.750;9.278;2023-05-07T13:21:07;21.20;56.50
3986;DHT22;2007;48.750;9.278;2023-05-07T13:23:36;21.20;56.50
3986;DHT22;2007;48.750;9.278;2023-05-07T13:26:05;21.20;56.50
3986;DHT22;2007;48.750;9.278;2023-05-07T13:28:53;21.20;56.50
3986;DHT22;2007;48.750;9.278;2023-05-07T13:31:21;21.20;56.50
3986;DHT22;2007;48.750;9.278;2023-05-07T13:33:49;21.20;56.50
3986;DHT22;2007;48.750;9.278;2023-05-07T13:36:17;21.20;56.50
3986;DHT22;2007;48.750;9.278;2023-05-07T13:38:45;21.20;56.50
3986;DHT22;2007;48.750;9.278;2023-05-07T13:41:13;21.20;56.50
3986;DHT22;2007;48.750;9.278;2023-05-07T13:43:41;21.20;56.50
3986;DHT22;2007;48.750;9.278;2023-05-07T13:46:10;21.20;56.50
3986;DHT22;2007;48.750;9.278;2023-05-07T13:48:38;21.20;56.50
3986;DHT22;2007;48.750;9.278;2023-05-07T13:51:06;21.20;56.50
3986;DHT22;2007;48.750;9.278;2023-05-07T13:53:34;21.20;56.50
3986;DHT22;2007;48.750;9.278;2023-05-07T13:56:02;21.20;56.50
3986;DHT22;2007;48.750;9.278;2023-05-07T13:58:31;21.20;56.50
3986;DHT22;2007;48.750;9.278;2023-05-07T14:00:59;21.20;56.50
3986;DHT22;2007;48.750;9.278;2023-05-07T14:03:28;21.20;56.50
3986;DHT22;2007;48.750;9.278;2023-05-07T14:05:58;21.20;56.50
3986;DHT22;2007;48.750;9.278;2023-05-07T14:08:27;21.20;56.60
3986;DHT22;2007;48.750;9.278;2023-05-07T14:10:57;21.20;56.60
3986;DHT22;2007;48.750;9.278;2023-05-07T14:13:25;21.20;56.60
3986;DHT22;2007;48.750;9.278;2023-05-07T14:15:54;21.20;56.60
3986;DHT22;2007;48.750;9.278;2023-05-07T14:18:21;21.20;56.60
3986;DHT22;2007;48.750;9.278;2023-05-07T14:20:51;21.20;56.60
3986;DHT22;2007;48.750;9.278;2023-05-07T14:23:19;21.20;56.60
3986;DHT22;2007;48.750;9.278;2023-05-07T14:25:52;21.20;56.60
3986;DHT22;2007;48.750;9.278;2023-05-07T14:28:20;21.20;56.60
3986;DHT22;2007;48.750;9.278;2023-05-07T14:30:48;21.20;56.60
3986;DHT22;2007;48.750;9.278;2023-05-07T14:33:17;21.20;56.60
3986;DHT22;2007;48.750;9.278;2023-05-07T14:35:45;21.20;56.60
3986;DHT22;2007;48.750;9.278;2023-05-07T14:38:16;21.20;56.60
3986;DHT22;2007;48.750;9.278;2023-05-07T14:40:44;21.20;56.60
3986;DHT22;2007;48.750;9.278;2023-05-07T14:43:12;21.20;56.60
3986;DHT22;2007;48.750;9.278;2023-05-07T14:45:40;21.20;56.60
3986;DHT22;2007;48.750;9.278;2023-05-07T14:48:08;21.20;56.60
3986;DHT22;2007;48.750;9.278;2023-05-07T14:50:41;21.20;56.60
3986;DHT22;2007;48.750;9.278;2023-05-07T14:53:09;21.20;56.60
3986;DHT22;2007;48.750;9.278;2023-05-07T14:55:38;21.20;57.20
3986;DHT22;2007;48.750;9.278;2023-05-07T14:58:07;21.20;56.60
3986;DHT22;2007;48.750;9.278;2023-05-07T15:00:34;21.20;56.60
3986;DHT22;2007;48.750;9.278;2023-05-07T15:03:05;21.20;56.60
3986;DHT22;2007;48.750;9.278;2023-05-07T15:05:35;21.20;56.60
3986;DHT22;2007;48.750;9.278;2023-05-07T15:08:03;21.20;56.60
3986;DHT22;2007;48.750;9.278;2023-05-07T15:10:35;21.20;56.60
3986;DHT22;2007;48.750;9.278;2023-05-07T15:13:09;21.20;56.60
3986;DHT22;2007;48.750;9.278;2023-05-07T15:15:42;21.20;56.60
3986;DHT22;2007;48.750;9.278;2023-05-07T15:18:10;21.20;56.60
3986;DHT22;2007;48.750;9.278;2023-05-07T15:20:38;21.20;56.60
3986;DHT22;2007;48.750;9.278;2023-05-07T15:23:07;21.20;56.60
3986;DHT22;2007;48.750;9.278;2023-05-07T15:25:36;21.20;56.60
3986;DHT22;2007;48.750;9.278;2023-05-07T15:28:04;21.20;56.60
3986;DHT22;2007;48.750;9.278;2023-05-07T15:30:34;21.20;56.60
3986;DHT22;2007;48.750;9.278;2023-05-07T15:33:02;21.20;56.70
3986;DHT22;2007;48.750;9.278;2023-05-07T15:35:30;21.20;56.60
3986;DHT22;2007;48.750;9.278;2023-05-07T15:37:58;21.20;56.60
3986;DHT22;2007;48.750;9.278;2023-05-07T15:40:26;21.20;56.60
3986;DHT22;2007;48.750;9.278;2023-05-07T15:42:55;21.20;56.70
3986;DHT22;2007;48.750;9.278;2023-05-07T15:45:24;21.20;56.60
3986;DHT22;2007;48.750;9.278;2023-05-07T15:47:53;21.20;56.60
3986;DHT22;2007;48.750;9.278;2023-05-07T15:50:21;21.20;56.60
3986;DHT22;2007;48.750;9.278;2023-05-07T15:52:49;21.20;56.60
3986;DHT22;2007;48.750;9.278;2023-05-07T15:55:17;21.20;56.70
3986;DHT22;2007;48.750;9.278;2023-05-07T15:57:45;21.20;56.70
3986;DHT22;2007;48.750;9.278;2023-05-07T16:00:13;21.20;56.70
3986;DHT22;2007;48.750;9.278;2023-05-07T16:02:43;21.20;56.70
3986;DHT22;2007;48.750;9.278;2023-05-07T16:05:12;21.20;56.70
3986;DHT22;2007;48.750;9.278;2023-05-07T16:07:41;21.30;56.80
3986;DHT22;2007;48.750;9.278;2023-05-07T16:10:10;21.20;56.70
3986;DHT22;2007;48.750;9.278;2023-05-07T16:12:38;21.20;56.70
3986;DHT22;2007;48.750;9.278;2023-05-07T16:15:07;21.20;56.70